FredonyerEastRWIS Atmospheric Data: 10/18/2019 Summary  Detailed Graphs  Station List

  Temperature     Wind Precipitation Visibility
Timestamp Air Wet
Bulb
Dew-
point
24-hr
Max
24-hr
Min
Relative
Humidity
Atmospheric
Pressure
Avg
Speed
Avg
Dir
Spot
Speed
Spot
Dir
Max
Speed
Max
Dir
  Rate Situation Start End 1 hr 3 hr 6 hr 12 hr 24 hr   Situation
Date Time °F °F °F °F °F % in Hg mph ° mph ° mph ° Y/N in/hr text Date Time Date Time in in in in in mi text
10/18/2019 12:09 AM 29.12 28.40 27.14 54.32 28.94 91.0 Not Reported 0.00 N 0.89 N 1.12 N No 0.000 No Precipitation 10/17/2019 11:41 AM 10/17/2019 11:47 AM 0.000 0.000 0.000 0.000 0.130 Not Reported Not Reported
10/18/2019 12:23 AM 29.12 28.40 27.50 54.32 28.94 93.0 Not Reported 0.45 NW 0.45 NW 2.01 NW No 0.000 No Precipitation 10/17/2019 11:41 AM 10/17/2019 11:47 AM 0.000 0.000 0.000 0.000 0.130 Not Reported Not Reported
10/18/2019 12:39 AM 29.30 28.76 27.86 54.32 28.94 94.0 Not Reported 0.67 NW 1.34 W 1.79 NW No 0.000 No Precipitation 10/17/2019 11:41 AM 10/17/2019 11:47 AM 0.000 0.000 0.000 0.000 0.130 Not Reported Not Reported
10/18/2019 12:53 AM 28.76 28.22 27.32 54.32 28.76 94.0 Not Reported 0.45 NW 0.00 NW 1.79 NW No 0.000 No Precipitation 10/17/2019 11:41 AM 10/17/2019 11:47 AM 0.000 0.000 0.000 0.000 0.130 Not Reported Not Reported
10/18/2019 01:09 AM 28.58 28.04 27.32 54.32 28.58 94.0 Not Reported 0.45 N 0.22 N 1.12 N No 0.000 No Precipitation 10/17/2019 11:41 AM 10/17/2019 11:47 AM 0.000 0.000 0.000 0.000 0.130 Not Reported Not Reported
10/18/2019 01:24 AM 28.22 27.86 27.14 54.32 28.22 95.0 Not Reported 1.12 NW 0.45 N 1.34 NW No 0.000 No Precipitation 10/17/2019 11:41 AM 10/17/2019 11:47 AM 0.000 0.000 0.000 0.000 0.130 Not Reported Not Reported
10/18/2019 01:38 AM 28.40 28.04 27.32 54.32 28.22 95.0 Not Reported 0.00 N 0.00 W 2.01 NW No 0.000 No Precipitation 10/17/2019 11:41 AM 10/17/2019 11:47 AM 0.000 0.000 0.000 0.000 0.130 Not Reported Not Reported
10/18/2019 01:53 AM 28.94 28.58 28.04 54.32 28.22 96.0 Not Reported 0.67 N 0.00 E 1.57 N No 0.000 No Precipitation 10/17/2019 11:41 AM 10/17/2019 11:47 AM 0.000 0.000 0.000 0.000 0.126 Not Reported Not Reported
10/18/2019 02:08 AM 28.94 28.58 27.86 54.32 28.22 95.0 Not Reported 0.00 N 0.00 N 0.89 E No 0.000 No Precipitation 10/17/2019 11:41 AM 10/17/2019 11:47 AM 0.000 0.000 0.000 0.000 0.110 Not Reported Not Reported
10/18/2019 02:23 AM 29.30 28.76 27.68 54.32 28.22 94.0 Not Reported 0.45 NE 1.34 N 1.57 N No 0.000 No Precipitation 10/17/2019 11:41 AM 10/17/2019 11:47 AM 0.000 0.000 0.000 0.000 0.087 Not Reported Not Reported
10/18/2019 02:38 AM 29.12 28.58 27.50 54.32 28.22 93.0 Not Reported 1.57 NW 1.12 NW 1.79 N No 0.000 No Precipitation 10/17/2019 11:41 AM 10/17/2019 11:47 AM 0.000 0.000 0.000 0.000 0.075 Not Reported Not Reported
10/18/2019 02:53 AM 28.58 28.04 27.32 54.32 28.22 94.0 Not Reported 0.00 NE 0.00 N 2.46 NW No 0.000 No Precipitation 10/17/2019 11:41 AM 10/17/2019 11:47 AM 0.000 0.000 0.000 0.000 0.055 Not Reported Not Reported
10/18/2019 03:09 AM 28.40 28.04 27.14 54.32 28.22 94.0 Not Reported 0.22 N 0.89 N 1.12 E No 0.000 No Precipitation 10/17/2019 11:41 AM 10/17/2019 11:47 AM 0.000 0.000 0.000 0.000 0.055 Not Reported Not Reported
10/18/2019 03:23 AM 28.94 28.40 27.50 54.32 28.22 94.0 Not Reported 1.34 NE 0.45 NE 2.01 E No 0.000 No Precipitation 10/17/2019 11:41 AM 10/17/2019 11:47 AM 0.000 0.000 0.000 0.000 0.055 Not Reported Not Reported
10/18/2019 03:39 AM 28.58 28.04 26.96 54.32 28.22 94.0 Not Reported 1.34 NW 1.57 NW 1.57 NW No 0.000 No Precipitation 10/17/2019 11:41 AM 10/17/2019 11:47 AM 0.000 0.000 0.000 0.000 0.051 Not Reported Not Reported
10/18/2019 03:53 AM 28.58 28.04 27.32 54.32 28.22 94.0 Not Reported 1.34 N 1.34 N 2.68 NW No 0.000 No Precipitation 10/17/2019 11:41 AM 10/17/2019 11:47 AM 0.000 0.000 0.000 0.000 0.051 Not Reported Not Reported
10/18/2019 04:08 AM 28.58 28.04 27.32 54.32 28.22 95.0 Not Reported 0.00 N 0.00 NW 2.91 NW No 0.000 No Precipitation 10/17/2019 11:41 AM 10/17/2019 11:47 AM 0.000 0.000 0.000 0.000 0.051 Not Reported Not Reported
10/18/2019 04:23 AM 28.76 28.40 27.68 54.32 28.22 95.0 Not Reported 0.89 N 2.01 NE 2.24 N No 0.000 No Precipitation 10/17/2019 11:41 AM 10/17/2019 11:47 AM 0.000 0.000 0.000 0.000 0.051 Not Reported Not Reported
10/18/2019 04:38 AM 29.30 28.94 28.22 54.32 28.22 95.0 Not Reported 0.89 NW 1.34 N 2.91 NW No 0.000 No Precipitation 10/17/2019 11:41 AM 10/17/2019 11:47 AM 0.000 0.000 0.000 0.000 0.051 Not Reported Not Reported
10/18/2019 04:53 AM 29.48 29.12 28.22 54.32 28.22 94.0 Not Reported 0.89 N 1.34 N 3.13 NW No 0.000 No Precipitation 10/17/2019 11:41 AM 10/17/2019 11:47 AM 0.000 0.000 0.000 0.000 0.051 Not Reported Not Reported
10/18/2019 05:08 AM 28.94 28.40 27.68 54.32 28.22 94.0 Not Reported 0.89 N 0.67 N 1.34 N No 0.000 No Precipitation 10/17/2019 11:41 AM 10/17/2019 11:47 AM 0.000 0.000 0.000 0.000 0.051 Not Reported Not Reported
10/18/2019 05:23 AM 28.58 28.22 27.50 54.32 28.22 95.0 Not Reported 0.89 NW 1.79 N 1.79 N No 0.000 No Precipitation 10/17/2019 11:41 AM 10/17/2019 11:47 AM 0.000 0.000 0.000 0.000 0.051 Not Reported Not Reported
10/18/2019 05:38 AM 28.58 28.04 27.50 54.32 28.22 95.0 Not Reported 0.22 N 0.67 N 0.67 N No 0.000 No Precipitation 10/17/2019 11:41 AM 10/17/2019 11:47 AM 0.000 0.000 0.000 0.000 0.051 Not Reported Not Reported
10/18/2019 05:53 AM 28.58 28.22 27.68 54.32 28.22 96.0 Not Reported 0.67 N 0.00 N 1.34 N No 0.000 No Precipitation 10/17/2019 11:41 AM 10/17/2019 11:47 AM 0.000 0.000 0.000 0.000 0.043 Not Reported Not Reported
10/18/2019 06:09 AM 28.76 28.22 27.68 54.32 28.22 96.0 Not Reported 0.00 N 0.22 NW 1.12 NW No 0.000 No Precipitation 10/17/2019 11:41 AM 10/17/2019 11:47 AM 0.000 0.000 0.000 0.000 0.043 Not Reported Not Reported
10/18/2019 06:23 AM 28.76 28.40 27.86 54.32 28.22 96.0 Not Reported 1.12 N 1.34 NW 1.57 N No 0.000 No Precipitation 10/17/2019 11:41 AM 10/17/2019 11:47 AM 0.000 0.000 0.000 0.000 0.039 Not Reported Not Reported
10/18/2019 06:39 AM 28.22 27.86 27.14 54.32 28.22 96.0 Not Reported 0.67 N 1.12 N 1.34 NW No 0.000 No Precipitation 10/17/2019 11:41 AM 10/17/2019 11:47 AM 0.000 0.000 0.000 0.000 0.039 Not Reported Not Reported
10/18/2019 06:53 AM 28.04 27.86 27.14 54.32 28.04 96.0 Not Reported 0.89 N 0.00 N 2.01 N No 0.000 No Precipitation 10/17/2019 11:41 AM 10/17/2019 11:47 AM 0.000 0.000 0.000 0.000 0.039 Not Reported Not Reported
10/18/2019 07:08 AM 28.40 28.04 27.50 54.32 28.04 96.0 Not Reported 0.00 N 0.45 NW 1.79 NW No 0.000 No Precipitation 10/17/2019 11:41 AM 10/17/2019 11:47 AM 0.000 0.000 0.000 0.000 0.039 Not Reported Not Reported
10/18/2019 07:23 AM 28.22 28.04 27.32 54.32 28.04 96.0 Not Reported 0.67 N 0.00 N 1.34 N No 0.000 No Precipitation 10/17/2019 11:41 AM 10/17/2019 11:47 AM 0.000 0.000 0.000 0.000 0.039 Not Reported Not Reported
10/18/2019 07:38 AM 29.84 29.48 29.12 54.32 28.04 97.0 Not Reported 0.67 NE 0.22 NE 1.79 NE No 0.000 No Precipitation 10/17/2019 11:41 AM 10/17/2019 11:47 AM 0.000 0.000 0.000 0.000 0.039 Not Reported Not Reported
10/18/2019 07:54 AM 31.28 30.92 30.20 54.32 28.04 95.0 Not Reported 0.67 N 1.12 N 2.01 NW No 0.000 No Precipitation 10/17/2019 11:41 AM 10/17/2019 11:47 AM 0.000 0.000 0.000 0.000 0.039 Not Reported Not Reported
10/18/2019 08:08 AM 32.36 31.64 30.38 54.32 28.04 91.0 Not Reported 0.00 N 0.45 NE 1.12 E No 0.000 No Precipitation 10/17/2019 11:41 AM 10/17/2019 11:47 AM 0.000 0.000 0.000 0.000 0.039 Not Reported Not Reported
10/18/2019 08:23 AM 33.08 32.00 30.56 54.32 28.04 89.0 Not Reported 0.00 N 0.00 NE 1.12 E No 0.000 No Precipitation 10/17/2019 11:41 AM 10/17/2019 11:47 AM 0.000 0.000 0.000 0.000 0.039 Not Reported Not Reported
10/18/2019 08:38 AM 34.34 32.72 30.56 54.32 28.04 85.0 Not Reported 1.12 E 1.34 E 1.34 E No 0.000 No Precipitation 10/17/2019 11:41 AM 10/17/2019 11:47 AM 0.000 0.000 0.000 0.000 0.039 Not Reported Not Reported
10/18/2019 08:53 AM 36.68 34.70 31.64 54.32 28.04 81.0 Not Reported 2.46 SE 0.67 E 3.36 SE No 0.000 No Precipitation 10/17/2019 11:41 AM 10/17/2019 11:47 AM 0.000 0.000 0.000 0.000 0.039 Not Reported Not Reported
10/18/2019 09:09 AM 37.94 35.06 31.10 54.32 28.04 75.0 Not Reported 0.67 SE 2.24 SE 2.68 SE No 0.000 No Precipitation 10/17/2019 11:41 AM 10/17/2019 11:47 AM 0.000 0.000 0.000 0.000 0.039 Not Reported Not Reported
10/18/2019 09:23 AM 39.02 36.14 32.00 54.32 28.04 75.0 Not Reported 2.01 S 4.03 S 4.03 S No 0.000 No Precipitation 10/17/2019 11:41 AM 10/17/2019 11:47 AM 0.000 0.000 0.000 0.000 0.039 Not Reported Not Reported
10/18/2019 09:38 AM 39.38 36.50 32.54 54.32 28.04 76.0 Not Reported 2.01 SE 0.67 SE 2.24 E No 0.000 No Precipitation 10/17/2019 11:41 AM 10/17/2019 11:47 AM 0.000 0.000 0.000 0.000 0.039 Not Reported Not Reported
10/18/2019 09:53 AM 42.80 38.66 33.08 54.32 28.04 68.0 Not Reported 3.36 SW 2.46 W 5.37 SW No 0.000 No Precipitation 10/17/2019 11:41 AM 10/17/2019 11:47 AM 0.000 0.000 0.000 0.000 0.039 Not Reported Not Reported
10/18/2019 10:08 AM 43.52 39.20 33.62 54.32 28.04 67.0 Not Reported 4.70 SW 1.79 SW 6.04 W No 0.000 No Precipitation 10/17/2019 11:41 AM 10/17/2019 11:47 AM 0.000 0.000 0.000 0.000 0.039 Not Reported Not Reported
10/18/2019 10:23 AM 42.80 38.84 33.80 54.32 28.04 70.0 Not Reported 3.36 S 6.04 W 8.05 SW No 0.000 No Precipitation 10/17/2019 11:41 AM 10/17/2019 11:47 AM 0.000 0.000 0.000 0.000 0.039 Not Reported Not Reported
10/18/2019 10:38 AM 43.88 39.74 34.52 54.32 28.04 69.0 Not Reported 2.24 S 4.47 SW 8.05 SW No 0.000 No Precipitation 10/17/2019 11:41 AM 10/17/2019 11:47 AM 0.000 0.000 0.000 0.000 0.039 Not Reported Not Reported
10/18/2019 10:53 AM 44.06 39.92 34.88 54.32 28.04 69.0 Not Reported 4.92 SW 3.36 S 10.29 SW No 0.000 No Precipitation 10/17/2019 11:41 AM 10/17/2019 11:47 AM 0.000 0.000 0.000 0.000 0.039 Not Reported Not Reported
10/18/2019 11:09 AM 44.60 40.28 34.88 54.32 28.04 68.0 Not Reported 7.16 SW 3.58 W 9.62 S No 0.000 No Precipitation 10/17/2019 11:41 AM 10/17/2019 11:47 AM 0.000 0.000 0.000 0.000 0.039 Not Reported Not Reported
10/18/2019 11:23 AM 45.14 40.46 34.70 54.32 28.04 66.0 Not Reported 4.92 SW 5.37 SW 7.83 SW No 0.000 No Precipitation 10/17/2019 11:41 AM 10/17/2019 11:47 AM 0.000 0.000 0.000 0.000 0.039 Not Reported Not Reported
10/18/2019 11:38 AM 45.14 40.46 34.70 54.32 28.04 66.0 Not Reported 6.04 SW 5.82 SW 9.40 SW No 0.000 No Precipitation 10/17/2019 11:41 AM 10/17/2019 11:47 AM 0.000 0.000 0.000 0.000 0.039 Not Reported Not Reported
10/18/2019 11:53 AM 45.86 41.00 35.24 54.32 28.04 66.0 Not Reported 4.70 SW 3.36 W 8.50 SW No 0.000 No Precipitation 10/17/2019 11:41 AM 10/17/2019 11:47 AM 0.000 0.000 0.000 0.000 0.000 Not Reported Not Reported
10/18/2019 12:08 PM 46.40 41.54 35.60 54.32 28.04 65.0 Not Reported 4.25 SW 3.13 SW 7.61 SW No 0.000 No Precipitation 10/17/2019 11:41 AM 10/17/2019 11:47 AM 0.000 0.000 0.000 0.000 0.000 Not Reported Not Reported
10/18/2019 12:23 PM 47.30 41.72 35.24 54.32 28.04 62.0 Not Reported 5.59 W 9.84 SW 9.84 SW No 0.000 No Precipitation 10/17/2019 11:41 AM 10/17/2019 11:47 AM 0.000 0.000 0.000 0.000 0.000 Not Reported Not Reported
10/18/2019 12:38 PM 47.66 41.18 33.26 54.32 28.04 57.0 Not Reported 7.38 SW 6.04 W 11.86 W No 0.000 No Precipitation 10/17/2019 11:41 AM 10/17/2019 11:47 AM 0.000 0.000 0.000 0.000 0.000 Not Reported Not Reported
10/18/2019 12:53 PM 51.08 42.62 32.00 54.32 28.04 47.0 Not Reported 3.58 S 5.14 S 10.74 S No 0.000 No Precipitation 10/17/2019 11:41 AM 10/17/2019 11:47 AM 0.000 0.000 0.000 0.000 0.000 Not Reported Not Reported
10/18/2019 01:09 PM 49.82 41.72 31.46 54.32 28.04 48.0 Not Reported 5.82 W 7.83 S 10.74 SW No 0.000 No Precipitation 10/17/2019 11:41 AM 10/17/2019 11:47 AM 0.000 0.000 0.000 0.000 0.000 Not Reported Not Reported
10/18/2019 01:23 PM 51.44 42.62 32.00 54.32 28.04 46.0 Not Reported 6.26 W 6.93 S 11.18 SW No 0.000 No Precipitation 10/17/2019 11:41 AM 10/17/2019 11:47 AM 0.000 0.000 0.000 0.000 0.000 Not Reported Not Reported
10/18/2019 01:39 PM 51.98 42.44 29.66 54.32 28.04 42.0 Not Reported 6.49 S 6.71 S 12.30 SW No 0.000 No Precipitation 10/17/2019 11:41 AM 10/17/2019 11:47 AM 0.000 0.000 0.000 0.000 0.000 Not Reported Not Reported
10/18/2019 01:53 PM 52.34 42.44 29.66 54.32 28.04 41.0 Not Reported 6.71 SW 3.36 SW 12.30 SW No 0.000 No Precipitation 10/17/2019 11:41 AM 10/17/2019 11:47 AM 0.000 0.000 0.000 0.000 0.000 Not Reported Not Reported
10/18/2019 02:08 PM 53.06 41.90 26.96 54.32 28.04 35.0 Not Reported 5.14 SE 2.91 S 11.18 S No 0.000 No Precipitation 10/17/2019 11:41 AM 10/17/2019 11:47 AM 0.000 0.000 0.000 0.000 0.000 Not Reported Not Reported
10/18/2019 02:23 PM 53.42 42.44 28.04 54.32 28.04 37.0 Not Reported 6.49 S 2.46 SE 11.18 W No 0.000 No Precipitation 10/17/2019 11:41 AM 10/17/2019 11:47 AM 0.000 0.000 0.000 0.000 0.000 Not Reported Not Reported
10/18/2019 02:38 PM 53.42 42.80 29.30 54.32 28.04 39.0 Not Reported 6.04 SW 3.13 SE 12.97 SW No 0.000 No Precipitation 10/17/2019 11:41 AM 10/17/2019 11:47 AM 0.000 0.000 0.000 0.000 0.000 Not Reported Not Reported
10/18/2019 02:53 PM 52.70 42.98 30.74 54.32 28.04 42.0 Not Reported 8.50 S 7.38 SW 11.63 S No 0.000 No Precipitation 10/17/2019 11:41 AM 10/17/2019 11:47 AM 0.000 0.000 0.000 0.000 0.000 Not Reported Not Reported
10/18/2019 03:08 PM 53.06 42.98 30.20 54.14 28.04 40.0 Not Reported 7.61 S 9.17 W 12.97 S No 0.000 No Precipitation 10/17/2019 11:41 AM 10/17/2019 11:47 AM 0.000 0.000 0.000 0.000 0.000 Not Reported Not Reported
10/18/2019 03:23 PM 53.78 43.52 30.56 54.50 28.04 40.0 Not Reported 4.47 S 10.29 SE 10.29 SE No 0.000 No Precipitation 10/17/2019 11:41 AM 10/17/2019 11:47 AM 0.000 0.000 0.000 0.000 0.000 Not Reported Not Reported
10/18/2019 03:38 PM 53.24 43.52 31.46 54.50 28.04 43.0 Not Reported 4.47 SW 8.50 S 9.62 SW No 0.000 No Precipitation 10/17/2019 11:41 AM 10/17/2019 11:47 AM 0.000 0.000 0.000 0.000 0.000 Not Reported Not Reported
10/18/2019 03:53 PM 53.78 43.88 31.82 54.68 28.04 42.0 Not Reported 5.82 SE 9.17 S 9.62 S No 0.000 No Precipitation 10/17/2019 11:41 AM 10/17/2019 11:47 AM 0.000 0.000 0.000 0.000 0.000 Not Reported Not Reported
10/18/2019 04:08 PM 53.96 43.70 30.92 54.68 28.04 40.0 Not Reported 6.26 S 3.13 SW 8.72 SW No 0.000 No Precipitation 10/17/2019 11:41 AM 10/17/2019 11:47 AM 0.000 0.000 0.000 0.000 0.000 Not Reported Not Reported
10/18/2019 04:24 PM 53.60 41.90 25.52 54.68 28.04 33.0 Not Reported 3.80 SW 5.59 SW 9.62 S No 0.000 No Precipitation 10/17/2019 11:41 AM 10/17/2019 11:47 AM 0.000 0.000 0.000 0.000 0.000 Not Reported Not Reported
10/18/2019 04:38 PM 53.60 41.90 25.34 54.68 28.04 32.0 Not Reported 4.92 SW 4.70 SW 8.50 SW No 0.000 No Precipitation 10/17/2019 11:41 AM 10/17/2019 11:47 AM 0.000 0.000 0.000 0.000 0.000 Not Reported Not Reported
10/18/2019 04:53 PM 52.88 41.72 26.06 54.68 28.04 34.0 Not Reported 5.37 SW 0.89 SW 8.72 SW No 0.000 No Precipitation 10/17/2019 11:41 AM 10/17/2019 11:47 AM 0.000 0.000 0.000 0.000 0.000 Not Reported Not Reported
10/18/2019 05:08 PM 51.62 41.54 28.04 54.68 28.04 39.0 Not Reported 5.37 W 4.25 SW 9.40 S No 0.000 No Precipitation 10/17/2019 11:41 AM 10/17/2019 11:47 AM 0.000 0.000 0.000 0.000 0.000 Not Reported Not Reported
10/18/2019 05:23 PM 50.72 41.00 27.86 54.68 28.04 40.0 Not Reported 3.80 W 3.58 SW 7.83 SW No 0.000 No Precipitation 10/17/2019 11:41 AM 10/17/2019 11:47 AM 0.000 0.000 0.000 0.000 0.000 Not Reported Not Reported
10/18/2019 05:38 PM 50.00 40.64 27.50 54.68 28.04 40.0 Not Reported 2.24 W 6.93 SW 6.93 SW No 0.000 No Precipitation 10/17/2019 11:41 AM 10/17/2019 11:47 AM 0.000 0.000 0.000 0.000 0.000 Not Reported Not Reported
10/18/2019 05:53 PM 49.28 40.28 28.22 54.68 28.04 43.0 Not Reported 5.82 W 2.01 S 6.71 SW No 0.000 No Precipitation 10/17/2019 11:41 AM 10/17/2019 11:47 AM 0.000 0.000 0.000 0.000 0.000 Not Reported Not Reported
10/18/2019 06:09 PM 48.38 39.56 27.68 54.68 28.04 43.0 Not Reported 2.91 W 3.80 SW 6.49 S No 0.000 No Precipitation 10/17/2019 11:41 AM 10/17/2019 11:47 AM 0.000 0.000 0.000 0.000 0.000 Not Reported Not Reported
10/18/2019 06:23 PM 47.66 39.38 27.86 54.68 28.04 45.0 Not Reported 3.58 W 4.92 SW 5.82 SW No 0.000 No Precipitation 10/17/2019 11:41 AM 10/17/2019 11:47 AM 0.000 0.000 0.000 0.000 0.000 Not Reported Not Reported
10/18/2019 06:38 PM 44.78 38.66 30.38 54.68 28.04 55.0 Not Reported 2.01 W 3.13 W 4.47 W No 0.000 No Precipitation 10/17/2019 11:41 AM 10/17/2019 11:47 AM 0.000 0.000 0.000 0.000 0.000 Not Reported Not Reported
10/18/2019 06:53 PM 44.24 38.12 29.66 54.68 28.04 55.0 Not Reported 2.68 W 2.68 W 6.04 S No 0.000 No Precipitation 10/17/2019 11:41 AM 10/17/2019 11:47 AM 0.000 0.000 0.000 0.000 0.000 Not Reported Not Reported
10/18/2019 07:09 PM 44.42 38.30 29.30 54.68 28.04 54.0 Not Reported 3.13 W 3.13 W 4.03 W No 0.000 No Precipitation 10/17/2019 11:41 AM 10/17/2019 11:47 AM 0.000 0.000 0.000 0.000 0.000 Not Reported Not Reported
10/18/2019 07:23 PM 43.88 38.12 30.20 54.68 28.04 57.0 Not Reported 3.36 W 1.34 W 4.70 W No 0.000 No Precipitation 10/17/2019 11:41 AM 10/17/2019 11:47 AM 0.000 0.000 0.000 0.000 0.000 Not Reported Not Reported
10/18/2019 07:38 PM 41.54 37.22 31.10 54.68 28.04 65.0 Not Reported 3.80 W 3.13 W 4.47 W No 0.000 No Precipitation 10/17/2019 11:41 AM 10/17/2019 11:47 AM 0.000 0.000 0.000 0.000 0.000 Not Reported Not Reported
10/18/2019 07:53 PM 42.26 37.22 30.56 54.68 28.04 62.0 Not Reported 4.03 W 3.58 NW 5.14 SW No 0.000 No Precipitation 10/17/2019 11:41 AM 10/17/2019 11:47 AM 0.000 0.000 0.000 0.000 0.000 Not Reported Not Reported
10/18/2019 08:08 PM 43.16 38.12 31.28 54.68 28.04 61.0 Not Reported 4.47 W 3.36 SW 6.26 W No 0.000 No Precipitation 10/17/2019 11:41 AM 10/17/2019 11:47 AM 0.000 0.000 0.000 0.000 0.000 Not Reported Not Reported
10/18/2019 08:24 PM 42.98 38.12 32.00 54.68 28.04 64.0 Not Reported 3.80 W 2.68 W 5.59 W No 0.000 No Precipitation 10/17/2019 11:41 AM 10/17/2019 11:47 AM 0.000 0.000 0.000 0.000 0.000 Not Reported Not Reported
10/18/2019 08:38 PM 43.16 38.30 32.00 54.68 28.04 64.0 Not Reported 3.58 NW 2.91 SW 5.59 W No 0.000 No Precipitation 10/17/2019 11:41 AM 10/17/2019 11:47 AM 0.000 0.000 0.000 0.000 0.000 Not Reported Not Reported
10/18/2019 08:53 PM 42.26 37.94 32.00 54.68 28.04 66.0 Not Reported 2.91 NW 2.01 NW 4.70 W No 0.000 No Precipitation 10/17/2019 11:41 AM 10/17/2019 11:47 AM 0.000 0.000 0.000 0.000 0.000 Not Reported Not Reported
10/18/2019 09:09 PM 43.16 38.30 31.64 54.68 28.04 62.0 Not Reported 2.01 W 3.36 SW 4.92 SW No 0.000 No Precipitation 10/17/2019 11:41 AM 10/17/2019 11:47 AM 0.000 0.000 0.000 0.000 0.000 Not Reported Not Reported
10/18/2019 09:23 PM 41.90 37.40 31.46 54.68 28.04 65.0 Not Reported 2.46 W 4.25 SW 5.37 NW No 0.000 No Precipitation 10/17/2019 11:41 AM 10/17/2019 11:47 AM 0.000 0.000 0.000 0.000 0.000 Not Reported Not Reported
10/18/2019 09:38 PM 40.28 36.68 31.64 54.68 28.04 70.0 Not Reported 2.91 W 2.46 W 5.59 SW No 0.000 No Precipitation 10/17/2019 11:41 AM 10/17/2019 11:47 AM 0.000 0.000 0.000 0.000 0.000 Not Reported Not Reported
10/18/2019 09:53 PM 42.26 37.58 31.46 54.68 28.04 64.0 Not Reported 3.58 NW 4.03 W 6.26 NW No 0.000 No Precipitation 10/17/2019 11:41 AM 10/17/2019 11:47 AM 0.000 0.000 0.000 0.000 0.000 Not Reported Not Reported
10/18/2019 10:08 PM 38.48 35.78 32.00 54.68 28.04 76.0 Not Reported 1.57 W 1.79 NW 2.46 SW No 0.000 No Precipitation 10/17/2019 11:41 AM 10/17/2019 11:47 AM 0.000 0.000 0.000 0.000 0.000 Not Reported Not Reported
10/18/2019 10:23 PM 42.62 37.40 29.84 54.68 28.04 59.0 Not Reported 3.36 W 4.03 W 4.92 W No 0.000 No Precipitation 10/17/2019 11:41 AM 10/17/2019 11:47 AM 0.000 0.000 0.000 0.000 0.000 Not Reported Not Reported
10/18/2019 10:38 PM 42.98 37.58 30.20 54.68 28.04 60.0 Not Reported 4.47 W 4.92 W 6.71 S No 0.000 No Precipitation 10/17/2019 11:41 AM 10/17/2019 11:47 AM 0.000 0.000 0.000 0.000 0.000 Not Reported Not Reported
10/18/2019 10:53 PM 42.62 37.58 30.38 54.68 28.04 61.0 Not Reported 2.24 W 2.46 W 7.16 NW No 0.000 No Precipitation 10/17/2019 11:41 AM 10/17/2019 11:47 AM 0.000 0.000 0.000 0.000 0.000 Not Reported Not Reported
10/18/2019 11:08 PM 42.80 37.58 30.38 54.68 28.04 60.0 Not Reported 2.46 NW 1.12 W 6.93 SW No 0.000 No Precipitation 10/17/2019 11:41 AM 10/17/2019 11:47 AM 0.000 0.000 0.000 0.000 0.000 Not Reported Not Reported
10/18/2019 11:23 PM 42.26 37.40 30.74 54.68 28.04 63.0 Not Reported 1.34 SW 2.01 NW 3.13 SW No 0.000 No Precipitation 10/17/2019 11:41 AM 10/17/2019 11:47 AM 0.000 0.000 0.000 0.000 0.000 Not Reported Not Reported
10/18/2019 11:38 PM 42.08 37.22 30.74 54.68 28.04 63.0 Not Reported 3.80 W 3.80 W 6.04 W No 0.000 No Precipitation 10/17/2019 11:41 AM 10/17/2019 11:47 AM 0.000 0.000 0.000 0.000 0.000 Not Reported Not Reported
10/18/2019 11:53 PM 41.18 37.04 31.28 54.68 28.04 67.0 Not Reported 4.47 W 2.46 W 6.49 SW No 0.000 No Precipitation 10/17/2019 11:41 AM 10/17/2019 11:47 AM 0.000 0.000 0.000 0.000 0.000 Not Reported Not Reported